createdAt,value
2023-05-10T00:00:56.433Z,0.00
2023-05-10T00:03:23.323Z,0.00
2023-05-10T00:05:50.105Z,0.00
2023-05-10T00:08:16.782Z,0.00
2023-05-10T00:10:43.501Z,0.00
2023-05-10T00:13:10.289Z,0.00
2023-05-10T00:15:37.018Z,0.00
2023-05-10T00:18:03.775Z,0.00
2023-05-10T00:20:30.713Z,0.00
2023-05-10T00:22:57.343Z,0.00
2023-05-10T00:25:24.086Z,0.00
2023-05-10T00:27:50.796Z,0.00
2023-05-10T00:30:17.665Z,0.00
2023-05-10T00:32:44.617Z,0.00
2023-05-10T00:35:11.858Z,4.47
2023-05-10T00:37:38.525Z,0.00
2023-05-10T00:40:06.889Z,0.00
2023-05-10T00:42:33.736Z,0.00
2023-05-10T00:45:00.473Z,0.00
2023-05-10T00:47:27.448Z,0.00
2023-05-10T00:49:54.359Z,0.00
2023-05-10T00:52:21.063Z,0.10
2023-05-10T00:54:48.640Z,0.00
2023-05-10T00:57:15.870Z,0.00
2023-05-10T00:59:43.596Z,0.00
2023-05-10T01:02:10.755Z,0.00
2023-05-10T01:04:38.719Z,0.47
2023-05-10T01:07:05.443Z,0.03
2023-05-10T01:09:32.920Z,0.30
2023-05-10T01:12:00.386Z,0.68
2023-05-10T01:14:27.674Z,0.00
2023-05-10T01:16:57.201Z,0.00
2023-05-10T01:19:27.623Z,0.00
2023-05-10T01:22:17.551Z,0.00
2023-05-10T01:24:47.273Z,0.10
2023-05-10T01:27:47.516Z,0.00
2023-05-10T01:30:48.317Z,0.00
2023-05-10T01:33:26.500Z,0.00
2023-05-10T01:36:27.872Z,0.00
2023-05-10T01:39:38.376Z,0.00
2023-05-10T01:42:28.091Z,0.00
2023-05-10T01:45:10.989Z,0.00
2023-05-10T01:47:46.619Z,0.00
2023-05-10T01:50:21.794Z,0.00
2023-05-10T01:52:55.991Z,0.00
2023-05-10T01:55:27.004Z,0.00
2023-05-10T01:58:03.395Z,0.00
2023-05-10T02:05:09.399Z,0.00
2023-05-10T02:07:40.032Z,0.00
2023-05-10T02:10:10.273Z,0.00
2023-05-10T02:12:41.962Z,0.00
2023-05-10T02:15:11.474Z,0.00
2023-05-10T02:17:40.072Z,0.00
2023-05-10T02:20:08.712Z,0.00
2023-05-10T02:22:37.123Z,0.00
2023-05-10T02:25:05.058Z,0.00
2023-05-10T02:27:32.572Z,0.00
2023-05-10T02:29:59.945Z,0.00
2023-05-10T02:32:28.625Z,0.00
2023-05-10T02:34:58.257Z,0.00
2023-05-10T02:37:26.404Z,0.00
2023-05-10T02:39:56.247Z,0.00
2023-05-10T02:42:29.179Z,0.00
2023-05-10T02:45:09.470Z,0.00
2023-05-10T02:47:36.376Z,0.00
2023-05-10T02:50:03.639Z,0.00
2023-05-10T02:52:41.317Z,0.00
2023-05-10T02:55:10.903Z,0.00
2023-05-10T02:57:44.104Z,0.00
2023-05-10T03:00:11.522Z,0.00
2023-05-10T03:02:38.238Z,0.00
2023-05-10T03:05:05.428Z,0.00
2023-05-10T03:07:32.448Z,0.00
2023-05-10T03:09:59.578Z,0.00
2023-05-10T03:13:07.314Z,0.00
2023-05-10T03:16:08.703Z,0.00
2023-05-10T03:18:57.020Z,0.00
2023-05-10T03:21:29.634Z,0.00
2023-05-10T03:24:07.878Z,0.00
2023-05-10T03:26:37.297Z,0.00
2023-05-10T03:29:15.788Z,0.00
2023-05-10T03:31:43.036Z,0.00
2023-05-10T03:34:09.954Z,0.00
2023-05-10T03:36:37.114Z,0.00
2023-05-10T03:39:03.843Z,0.00
2023-05-10T03:41:31.088Z,0.00
2023-05-10T03:43:57.788Z,0.00
2023-05-10T03:46:24.533Z,0.00
2023-05-10T03:48:51.468Z,0.00
2023-05-10T03:51:18.517Z,0.00
2023-05-10T03:53:45.777Z,0.00
2023-05-10T03:56:12.490Z,0.00
2023-05-10T03:58:39.338Z,0.00
2023-05-10T04:01:06.105Z,0.00
2023-05-10T04:03:32.950Z,0.00
2023-05-10T04:06:03.806Z,0.00
2023-05-10T04:08:31.043Z,0.00
2023-05-10T04:11:12.692Z,0.00
2023-05-10T04:13:39.663Z,0.00
2023-05-10T04:16:06.637Z,0.20
2023-05-10T04:18:33.540Z,0.00
2023-05-10T04:21:00.363Z,0.00
2023-05-10T04:23:28.544Z,0.00
2023-05-10T04:26:01.914Z,0.00
2023-05-10T04:28:28.721Z,0.00
2023-05-10T04:31:04.946Z,0.00
2023-05-10T04:33:32.250Z,0.00
2023-05-10T04:35:59.011Z,0.00
2023-05-10T04:38:26.100Z,0.00
2023-05-10T04:40:52.829Z,0.00
2023-05-10T04:43:19.796Z,0.00
2023-05-10T04:45:46.744Z,0.00
2023-05-10T04:48:13.479Z,0.00
2023-05-10T04:50:40.730Z,0.00
2023-05-10T04:53:07.492Z,0.20
2023-05-10T04:55:34.174Z,0.10
2023-05-10T04:58:01.569Z,0.00
2023-05-10T05:00:28.254Z,0.00
2023-05-10T05:02:56.965Z,0.00
2023-05-10T05:05:23.845Z,0.00
2023-05-10T05:07:51.571Z,0.00
2023-05-10T05:10:18.467Z,0.00
2023-05-10T05:12:45.958Z,0.20
2023-05-10T05:15:12.760Z,0.00
2023-05-10T05:17:39.500Z,0.00
2023-05-10T05:20:07.161Z,0.00
2023-05-10T05:22:33.963Z,0.00
2023-05-10T05:25:01.562Z,0.00
2023-05-10T05:27:28.929Z,0.00
2023-05-10T05:29:57.245Z,0.00
2023-05-10T05:32:25.009Z,0.00
2023-05-10T05:34:52.624Z,0.00
2023-05-10T05:37:22.204Z,0.00
2023-05-10T05:39:49.433Z,0.00
2023-05-10T05:42:17.442Z,0.00
2023-05-10T05:44:44.208Z,0.00
2023-05-10T05:47:11.534Z,0.00
2023-05-10T05:49:38.243Z,0.00
2023-05-10T05:52:05.266Z,0.00
2023-05-10T05:54:32.563Z,0.00
2023-05-10T05:57:01.555Z,0.00
2023-05-10T05:59:28.997Z,0.00
2023-05-10T06:01:55.874Z,0.05
2023-05-10T06:04:22.818Z,0.00
2023-05-10T06:06:49.644Z,0.00
2023-05-10T06:09:16.802Z,0.10
2023-05-10T06:11:43.865Z,0.00
2023-05-10T06:14:10.606Z,0.00
2023-05-10T06:16:37.392Z,0.00
2023-05-10T06:19:04.395Z,0.00
2023-05-10T06:21:31.252Z,0.00
2023-05-10T06:23:58.169Z,0.00
2023-05-10T06:26:24.865Z,0.00
2023-05-10T06:28:51.575Z,0.00
2023-05-10T06:31:18.781Z,0.35
2023-05-10T06:33:45.653Z,0.00
2023-05-10T06:36:12.522Z,0.00
2023-05-10T06:38:39.202Z,0.00
2023-05-10T06:41:06.448Z,0.00
2023-05-10T06:43:33.242Z,0.10
2023-05-10T06:46:01.953Z,0.00
2023-05-10T06:48:29.169Z,0.15
2023-05-10T06:50:55.917Z,0.32
2023-05-10T06:53:22.879Z,0.00
2023-05-10T06:55:50.594Z,0.00
2023-05-10T06:58:17.479Z,0.10
2023-05-10T07:00:44.917Z,0.00
2023-05-10T07:03:11.929Z,0.00
2023-05-10T07:05:38.808Z,0.00
2023-05-10T07:08:05.574Z,0.00
2023-05-10T07:10:32.220Z,0.00
2023-05-10T07:12:59.009Z,0.65
2023-05-10T07:15:25.867Z,0.85
2023-05-10T07:17:53.301Z,0.00
2023-05-10T07:20:20.309Z,0.00
2023-05-10T07:22:46.927Z,0.00
2023-05-10T07:25:13.683Z,0.00
2023-05-10T07:27:40.348Z,0.00
2023-05-10T07:30:08.153Z,0.00
2023-05-10T07:32:34.921Z,0.00
2023-05-10T07:35:02.040Z,0.00
2023-05-10T07:37:28.736Z,0.00
2023-05-10T07:39:57.570Z,0.00
2023-05-10T07:42:24.494Z,0.30
2023-05-10T07:44:52.115Z,0.30
2023-05-10T07:47:18.925Z,0.00
2023-05-10T07:49:45.551Z,0.00
2023-05-10T07:52:12.523Z,0.00
2023-05-10T07:54:39.162Z,0.00
2023-05-10T07:57:05.922Z,0.00
2023-05-10T07:59:33.187Z,0.00
2023-05-10T08:02:00.068Z,0.00
2023-05-10T08:04:26.997Z,0.00
2023-05-10T08:06:53.670Z,0.00
2023-05-10T08:09:24.538Z,0.00
2023-05-10T08:11:51.629Z,0.00
2023-05-10T08:14:18.515Z,2.05
2023-05-10T08:16:45.227Z,0.68
2023-05-10T08:19:12.262Z,0.08
2023-05-10T08:21:39.163Z,0.20
2023-05-10T08:24:06.393Z,0.03
2023-05-10T08:26:33.878Z,0.15
2023-05-10T08:29:00.573Z,0.00
2023-05-10T08:31:27.385Z,0.15
2023-05-10T08:33:54.037Z,0.00
2023-05-10T08:36:22.677Z,0.00
2023-05-10T08:38:55.683Z,0.00
2023-05-10T08:41:27.357Z,0.10
2023-05-10T08:43:55.698Z,0.38
2023-05-10T08:46:23.925Z,0.10
2023-05-10T08:48:55.117Z,0.00
2023-05-10T08:51:27.964Z,0.35
2023-05-10T08:53:55.069Z,0.65
2023-05-10T08:56:21.897Z,0.47
2023-05-10T08:58:49.875Z,0.10
2023-05-10T09:01:17.869Z,0.47
2023-05-10T09:03:46.811Z,0.00
2023-05-10T09:06:14.558Z,0.88
2023-05-10T09:08:42.584Z,0.03
2023-05-10T09:11:10.949Z,0.30
2023-05-10T09:13:37.657Z,0.00
2023-05-10T09:16:13.923Z,0.45
2023-05-10T09:18:48.289Z,0.10
2023-05-10T09:21:14.982Z,0.10
2023-05-10T09:23:48.215Z,0.00
2023-05-10T09:26:15.475Z,0.00
2023-05-10T09:28:59.915Z,0.00
2023-05-10T09:31:51.973Z,0.00
2023-05-10T09:34:22.147Z,0.55
2023-05-10T09:36:57.563Z,0.00
2023-05-10T09:39:38.835Z,0.00
2023-05-10T09:42:10.761Z,0.22
2023-05-10T09:44:39.108Z,0.10
2023-05-10T09:47:05.766Z,0.00
2023-05-10T09:49:32.544Z,0.00
2023-05-10T09:52:08.176Z,0.00
2023-05-10T09:54:36.195Z,0.00
2023-05-10T09:57:03.460Z,0.00
2023-05-10T09:59:30.494Z,0.00
2023-05-10T10:02:00.542Z,0.00
2023-05-10T10:04:28.438Z,0.00
2023-05-10T10:07:05.820Z,0.28
2023-05-10T10:09:34.143Z,0.00
2023-05-10T10:12:02.888Z,0.00
2023-05-10T10:14:30.675Z,0.00
2023-05-10T10:17:07.326Z,0.00
2023-05-10T10:19:36.736Z,0.00
2023-05-10T10:22:03.960Z,6.93
2023-05-10T10:24:30.724Z,13.68
2023-05-10T10:27:08.797Z,17.35
2023-05-10T10:29:53.855Z,14.45
2023-05-10T10:32:56.621Z,15.00
2023-05-10T10:35:23.378Z,19.70
2023-05-10T10:37:51.985Z,17.08
2023-05-10T10:40:28.576Z,17.23
2023-05-10T10:42:57.027Z,18.30
2023-05-10T10:45:26.328Z,20.08
2023-05-10T10:48:23.508Z,16.50
2023-05-10T10:50:58.824Z,19.48
2023-05-10T10:56:12.581Z,18.45
2023-05-10T10:58:40.482Z,17.83
2023-05-10T11:01:19.634Z,18.88
2023-05-10T11:04:01.831Z,26.17
2023-05-10T11:06:36.491Z,23.88
2023-05-10T11:09:13.771Z,25.15
2023-05-10T11:11:59.094Z,17.85
2023-05-10T11:14:28.872Z,16.60
2023-05-10T11:16:55.607Z,19.38
2023-05-10T11:19:22.214Z,19.65
2023-05-10T11:22:16.427Z,21.88
2023-05-10T11:24:59.057Z,18.40
2023-05-10T11:27:25.902Z,22.42
2023-05-10T11:29:53.017Z,19.90
2023-05-10T11:32:20.677Z,16.98
2023-05-10T11:34:49.287Z,15.30
2023-05-10T11:37:16.034Z,16.92
2023-05-10T11:39:48.521Z,16.70
2023-05-10T11:42:15.217Z,20.98
2023-05-10T11:44:42.856Z,16.23
2023-05-10T11:47:09.713Z,18.85
2023-05-10T11:49:36.424Z,14.43
2023-05-10T11:52:10.009Z,15.85
2023-05-10T11:54:36.886Z,17.42
2023-05-10T11:57:04.540Z,21.13
2023-05-10T11:59:31.244Z,17.33
2023-05-10T12:01:58.119Z,15.73
2023-05-10T12:04:25.367Z,16.88
2023-05-10T12:06:52.105Z,24.73
2023-05-10T12:09:23.010Z,17.83
2023-05-10T12:11:58.527Z,22.77
2023-05-10T12:14:25.436Z,21.15
2023-05-10T12:16:52.290Z,20.60
2023-05-10T12:19:22.268Z,21.90
2023-05-10T12:21:49.624Z,20.38
2023-05-10T12:24:18.810Z,22.48
2023-05-10T12:26:49.277Z,23.00
2023-05-10T12:29:19.009Z,20.30
2023-05-10T12:31:59.895Z,18.60
2023-05-10T12:34:39.973Z,19.52
2023-05-10T12:37:06.670Z,19.90
2023-05-10T12:39:47.096Z,17.90
2023-05-10T12:42:13.804Z,20.65
2023-05-10T12:44:40.826Z,19.05
2023-05-10T12:47:07.841Z,20.20
2023-05-10T12:49:37.412Z,17.95
2023-05-10T12:52:04.196Z,21.00
2023-05-10T12:54:30.853Z,17.80
2023-05-10T12:56:57.637Z,20.83
2023-05-10T12:59:24.347Z,19.33
2023-05-10T13:01:51.041Z,16.00
2023-05-10T13:04:17.950Z,17.25
2023-05-10T13:06:44.784Z,18.30
2023-05-10T13:09:11.509Z,14.70
2023-05-10T13:11:38.413Z,18.20
2023-05-10T13:14:05.275Z,13.50
2023-05-10T13:16:32.650Z,14.30
2023-05-10T13:18:59.512Z,13.77
2023-05-10T13:21:26.323Z,14.85
2023-05-10T13:23:53.638Z,13.52
2023-05-10T13:26:20.979Z,13.63
2023-05-10T13:28:47.689Z,16.85
2023-05-10T13:31:14.431Z,14.90
2023-05-10T13:33:41.060Z,12.63
2023-05-10T13:36:07.928Z,16.40
2023-05-10T13:38:34.614Z,13.30
2023-05-10T13:41:01.290Z,15.00
2023-05-10T13:43:27.927Z,15.75
2023-05-10T13:45:54.606Z,14.60
2023-05-10T13:48:21.261Z,14.20
2023-05-10T13:50:47.998Z,15.52
2023-05-10T13:53:15.400Z,16.17
2023-05-10T13:55:44.323Z,14.98
2023-05-10T13:58:11.598Z,19.73
2023-05-10T14:00:38.251Z,15.77
2023-05-10T14:03:06.290Z,14.82
2023-05-10T14:05:33.204Z,16.60
2023-05-10T14:07:59.871Z,15.63
2023-05-10T14:10:26.565Z,12.68
2023-05-10T14:12:53.294Z,13.50
2023-05-10T14:15:20.350Z,12.50
2023-05-10T14:17:47.010Z,9.85
2023-05-10T14:20:13.775Z,9.48
2023-05-10T14:22:41.379Z,9.30
2023-05-10T14:25:08.741Z,9.52
2023-05-10T14:27:35.497Z,10.13
2023-05-10T14:30:02.281Z,10.13
2023-05-10T14:32:29.357Z,11.07
2023-05-10T14:34:56.605Z,11.35
2023-05-10T14:37:23.662Z,8.38
2023-05-10T14:39:50.291Z,6.82
2023-05-10T14:42:17.080Z,7.60
2023-05-10T14:44:43.679Z,7.28
2023-05-10T14:47:12.441Z,7.03
2023-05-10T14:49:39.179Z,6.85
2023-05-10T14:52:05.926Z,6.82
2023-05-10T14:54:34.472Z,6.55
2023-05-10T14:57:01.618Z,8.57
2023-05-10T14:59:28.322Z,7.78
2023-05-10T15:01:55.459Z,5.95
2023-05-10T15:04:22.566Z,5.97
2023-05-10T15:06:49.757Z,6.65
2023-05-10T15:09:17.309Z,8.55
2023-05-10T15:11:45.383Z,6.15
2023-05-10T15:14:12.100Z,8.75
2023-05-10T15:16:38.866Z,7.22
2023-05-10T15:19:05.765Z,7.25
2023-05-10T15:21:38.542Z,8.55
2023-05-10T15:24:07.018Z,8.25
2023-05-10T15:26:33.757Z,7.82
2023-05-10T15:29:00.469Z,6.07
2023-05-10T15:31:28.157Z,7.20
2023-05-10T15:34:03.892Z,9.43
2023-05-10T15:36:32.803Z,7.90
2023-05-10T15:38:59.489Z,7.32
2023-05-10T15:41:26.223Z,6.38
2023-05-10T15:43:52.864Z,7.38
2023-05-10T15:46:19.651Z,6.63
2023-05-10T15:48:46.485Z,9.35
2023-05-10T15:51:15.869Z,5.97
2023-05-10T15:53:52.662Z,7.93
2023-05-10T15:56:27.355Z,8.60
2023-05-10T15:58:54.031Z,9.70
2023-05-10T16:01:21.275Z,10.25
2023-05-10T16:03:47.973Z,9.55
2023-05-10T16:06:14.701Z,9.32
2023-05-10T16:08:41.438Z,8.52
2023-05-10T16:11:08.366Z,8.55
2023-05-10T16:13:35.382Z,9.15
2023-05-10T16:16:02.199Z,8.05
2023-05-10T16:18:29.034Z,7.38
2023-05-10T16:20:55.929Z,8.40
2023-05-10T16:23:22.786Z,7.88
2023-05-10T16:25:49.515Z,8.90
2023-05-10T16:28:16.203Z,5.38
2023-05-10T16:30:42.930Z,5.03
2023-05-10T16:33:09.672Z,5.57
2023-05-10T16:35:36.400Z,7.40
2023-05-10T16:38:03.990Z,2.35
2023-05-10T16:40:31.362Z,1.60
2023-05-10T16:42:58.136Z,1.10
2023-05-10T16:45:25.772Z,2.03
2023-05-10T16:47:53.790Z,2.85
2023-05-10T16:50:20.663Z,3.33
2023-05-10T16:52:47.614Z,2.10
2023-05-10T16:55:14.365Z,2.10
2023-05-10T16:57:41.239Z,1.50
2023-05-10T17:00:08.710Z,1.55
2023-05-10T17:02:35.524Z,1.98
2023-05-10T17:05:02.374Z,3.13
2023-05-10T17:07:29.397Z,3.45
2023-05-10T17:09:56.573Z,1.58
2023-05-10T17:12:23.267Z,2.13
2023-05-10T17:14:49.940Z,2.95
2023-05-10T17:17:16.623Z,5.57
2023-05-10T17:19:46.096Z,4.97
2023-05-10T17:22:13.763Z,3.67
2023-05-10T17:24:40.639Z,3.70
2023-05-10T17:27:07.378Z,3.85
2023-05-10T17:29:34.074Z,4.95
2023-05-10T17:32:01.026Z,5.28
2023-05-10T17:34:27.872Z,7.82
2023-05-10T17:36:54.553Z,6.60
2023-05-10T17:39:21.348Z,5.93
2023-05-10T17:41:47.998Z,7.40
2023-05-10T17:44:14.706Z,7.57
2023-05-10T17:46:41.353Z,7.40
2023-05-10T17:49:08.044Z,8.68
2023-05-10T17:51:34.777Z,6.82
2023-05-10T17:54:03.655Z,6.28
2023-05-10T17:56:30.485Z,5.60
2023-05-10T17:58:57.249Z,7.10
2023-05-10T18:01:23.962Z,6.85
2023-05-10T18:03:51.864Z,6.65
2023-05-10T18:06:18.642Z,4.85
2023-05-10T18:08:45.479Z,5.80
2023-05-10T18:11:12.169Z,7.22
2023-05-10T18:13:38.890Z,6.93
2023-05-10T18:16:08.665Z,4.75
2023-05-10T18:18:35.662Z,6.20
2023-05-10T18:21:03.670Z,4.18
2023-05-10T18:23:30.406Z,7.15
2023-05-10T18:25:57.574Z,9.02
2023-05-10T18:28:25.654Z,5.30
2023-05-10T18:30:52.403Z,7.45
2023-05-10T18:33:19.177Z,6.63
2023-05-10T18:35:46.280Z,8.15
2023-05-10T18:38:13.661Z,6.82
2023-05-10T18:40:42.276Z,9.93
2023-05-10T18:43:09.008Z,9.32
2023-05-10T18:45:35.726Z,11.32
2023-05-10T18:48:02.952Z,6.93
2023-05-10T18:50:29.787Z,5.45
2023-05-10T18:52:56.655Z,5.80
2023-05-10T18:55:25.734Z,6.85
2023-05-10T18:57:52.482Z,7.97
2023-05-10T19:00:20.394Z,5.80
2023-05-10T19:02:47.744Z,5.93
2023-05-10T19:05:15.468Z,7.10
2023-05-10T19:07:43.898Z,7.07
2023-05-10T19:10:13.738Z,6.93
2023-05-10T19:12:43.502Z,5.88
2023-05-10T19:15:10.658Z,7.15
2023-05-10T19:17:38.383Z,6.65
2023-05-10T19:20:06.952Z,6.53
2023-05-10T19:22:47.321Z,7.30
2023-05-10T19:25:21.598Z,6.65
2023-05-10T19:27:48.413Z,9.02
2023-05-10T19:30:15.325Z,6.63
2023-05-10T19:32:44.160Z,9.15
2023-05-10T19:35:15.647Z,8.32
2023-05-10T19:37:47.217Z,6.82
2023-05-10T19:40:15.785Z,8.15
2023-05-10T19:42:42.524Z,5.90
2023-05-10T19:45:10.071Z,12.38
2023-05-10T19:47:37.270Z,10.30
2023-05-10T19:50:04.944Z,8.65
2023-05-10T19:52:31.716Z,5.95
2023-05-10T19:54:58.419Z,10.88
2023-05-10T19:57:25.171Z,9.45
2023-05-10T19:59:51.857Z,9.10
2023-05-10T20:02:18.563Z,11.25
2023-05-10T20:04:45.296Z,7.85
2023-05-10T20:07:12.391Z,8.23
2023-05-10T20:09:39.147Z,10.57
2023-05-10T20:12:05.825Z,12.43
2023-05-10T20:14:32.597Z,14.20
2023-05-10T20:16:59.416Z,14.05
2023-05-10T20:19:26.324Z,14.68
2023-05-10T20:21:55.921Z,10.30
2023-05-10T20:24:22.726Z,12.77
2023-05-10T20:26:52.092Z,8.93
2023-05-10T20:29:18.793Z,12.00
2023-05-10T20:31:45.650Z,11.13
2023-05-10T20:34:12.503Z,11.80
2023-05-10T20:36:39.127Z,13.00
2023-05-10T20:39:05.808Z,16.40
2023-05-10T20:41:32.519Z,18.65
2023-05-10T20:43:59.265Z,13.23
2023-05-10T20:46:27.068Z,16.67
2023-05-10T20:48:54.250Z,15.68
2023-05-10T20:51:20.956Z,15.70
2023-05-10T20:53:47.674Z,16.70
2023-05-10T20:56:14.427Z,16.50
2023-05-10T20:58:41.111Z,14.93
2023-05-10T21:01:07.837Z,13.35
2023-05-10T21:03:34.501Z,15.10
2023-05-10T21:06:01.226Z,15.20
2023-05-10T21:08:27.944Z,15.10
2023-05-10T21:10:54.735Z,16.58
2023-05-10T21:13:21.445Z,11.65
2023-05-10T21:15:48.175Z,16.35
2023-05-10T21:18:14.924Z,16.23
2023-05-10T21:20:41.796Z,16.85
2023-05-10T21:23:08.491Z,15.75
2023-05-10T21:25:35.571Z,17.50
2023-05-10T21:28:02.300Z,15.32
2023-05-10T21:30:29.107Z,14.70
2023-05-10T21:32:59.727Z,13.00
2023-05-10T21:35:26.652Z,14.73
2023-05-10T21:37:53.350Z,17.30
2023-05-10T21:40:20.432Z,15.32
2023-05-10T21:42:49.311Z,16.85
2023-05-10T21:45:17.135Z,18.77
2023-05-10T21:47:44.166Z,14.38
2023-05-10T21:50:12.194Z,17.15
2023-05-10T21:52:39.562Z,17.33
2023-05-10T21:55:08.454Z,14.07
2023-05-10T21:57:35.981Z,16.23
2023-05-10T22:00:05.162Z,18.60
2023-05-10T22:02:32.007Z,16.55
2023-05-10T22:04:58.791Z,14.63
2023-05-10T22:07:25.561Z,16.58
2023-05-10T22:09:52.315Z,20.58
2023-05-10T22:12:19.035Z,20.98
2023-05-10T22:14:45.992Z,21.40
2023-05-10T22:17:13.443Z,17.27
2023-05-10T22:19:40.285Z,20.65
2023-05-10T22:22:06.995Z,20.27
2023-05-10T22:24:33.642Z,20.58
2023-05-10T22:27:01.887Z,22.58
2023-05-10T22:29:30.366Z,20.95
2023-05-10T22:31:57.759Z,21.38
2023-05-10T22:34:25.001Z,16.90
2023-05-10T22:36:51.684Z,18.80
2023-05-10T22:39:18.386Z,19.25
2023-05-10T22:41:45.036Z,15.70
2023-05-10T22:44:11.861Z,19.50
2023-05-10T22:46:38.612Z,20.13
2023-05-10T22:49:06.241Z,18.30
2023-05-10T22:51:32.939Z,20.02
2023-05-10T22:53:59.637Z,19.48
2023-05-10T22:56:26.370Z,21.48
2023-05-10T22:58:53.404Z,27.52
2023-05-10T23:01:20.637Z,24.13
2023-05-10T23:03:47.434Z,22.55
2023-05-10T23:06:14.178Z,18.10
2023-05-10T23:08:40.844Z,20.88
2023-05-10T23:11:07.531Z,22.45
2023-05-10T23:13:34.248Z,23.52
2023-05-10T23:16:10.468Z,23.30
2023-05-10T23:18:37.350Z,19.30
2023-05-10T23:21:04.300Z,21.27
2023-05-10T23:23:34.573Z,23.13
2023-05-10T23:26:02.083Z,22.67
2023-05-10T23:28:28.775Z,22.33
2023-05-10T23:30:58.940Z,24.08
2023-05-10T23:33:26.831Z,22.90
2023-05-10T23:35:54.858Z,26.15
2023-05-10T23:38:21.847Z,24.95
2023-05-10T23:40:50.057Z,27.67
2023-05-10T23:43:19.614Z,30.77
2023-05-10T23:45:56.780Z,29.73
2023-05-10T23:48:24.171Z,32.97
2023-05-10T23:50:51.213Z,28.55
2023-05-10T23:53:17.992Z,24.70
2023-05-10T23:55:45.391Z,26.08
2023-05-10T23:58:12.494Z,27.38
